Accueil
METAR-TAF:

METAR-TAF

Aéroports :

Clermont-Ferrand, France

Aéroport de Clermont-Ferrand Auvergne

latitude: 45-47N, longitude: 003-10E, altitude: 332 m

Observation

Le bulletin a été fait il y a 40 minutes, à 06:00 UTC
Vent 2 kt de direction variable
Température 19°C
Humidité 78%
Pression 1018 hPa
Visibilité 10 km ou plus

METAR: LFLC 240600Z AUTO VRB02KT 9999 NSC 19/15 Q1018 NOSIG

Heure: 08:40 (06:40 UTC)

Prévision

Le bulletin a été fait il y a 4 heures et 40 minutes, à 02:00 UTC
Prévision valable du 24 à 03 UTC au 25 à 03 UTC
Vent 3 kt de sud
Visibilité 10 km ou plus
pas de nuages en-dessous de 1500 mètres et pas de cumulonimbus.
Evoluant progressivement
du 24 à 12 UTC au 24 à 14 UTC
Quelques nuages à une hauteur de 6000 ft, Cumulus congestus.
Evoluant progressivement
du 24 à 23 UTC au 25 à 01 UTC
Vent 12 kt de sud

TAF: LFLC 240200Z 2403/2503 18003KT CAVOK BECMG 2412/2414 FEW060TCU BECMG 2423/2501 18012KT

Observations et prévisions météorologiques de plus de 4000 aéroports (messages METAR et TAF).

Les stations disponibles sont représentées par des disques jaunes et rouges sur la carte.

Passer la souris dessus pour voir le nom de la station.

Cliquer dessus pour voir les observations et prévisions météorologiques.

Pour changer de carte: cliquez sur les boutons verts avec une croix noire pour zoomer, sur le bouton vert avec un tiret pour effectuer un zoom arrière, ou sur les flèches vertes pour les cartes adjacentes.


METAR-TAF: